createdAt,value
2019-04-06T00:00:41.243Z,26.80
2019-04-06T00:01:41.216Z,27.50
2019-04-06T00:02:41.259Z,25.90
2019-04-06T00:03:41.203Z,26.60
2019-04-06T00:04:41.216Z,27.10
2019-04-06T00:05:41.183Z,28.40
2019-04-06T00:06:41.169Z,22.50
2019-04-06T00:07:41.148Z,27.00
2019-04-06T00:08:41.143Z,24.20
2019-04-06T00:09:41.145Z,25.10
2019-04-06T00:10:41.120Z,26.00
2019-04-06T00:11:41.122Z,25.50
2019-04-06T00:12:41.097Z,26.20
2019-04-06T00:13:41.086Z,24.30
2019-04-06T00:14:41.099Z,22.70
2019-04-06T00:15:41.068Z,25.20
2019-04-06T00:16:41.055Z,20.60
2019-04-06T00:17:41.044Z,26.00
2019-04-06T00:18:41.030Z,24.30
2019-04-06T00:19:41.039Z,25.40
2019-04-06T00:20:41.022Z,21.60
2019-04-06T00:21:41.007Z,25.60
2019-04-06T00:22:40.995Z,24.90
2019-04-06T00:23:40.982Z,29.20
2019-04-06T00:24:41.013Z,26.40
2019-04-06T00:25:44.752Z,24.50
2019-04-06T00:26:40.992Z,23.40
2019-04-06T00:27:40.970Z,23.90
2019-04-06T00:28:40.946Z,23.20
2019-04-06T00:29:40.927Z,26.00
2019-04-06T00:30:40.967Z,24.00
2019-04-06T00:31:40.921Z,25.20
2019-04-06T00:32:40.885Z,23.70
2019-04-06T00:33:40.881Z,23.10
2019-04-06T00:34:40.870Z,24.00
2019-04-06T00:35:40.855Z,25.70
2019-04-06T00:36:40.845Z,24.50
2019-04-06T00:37:40.844Z,24.70
2019-04-06T00:38:40.821Z,24.60
2019-04-06T00:39:40.824Z,24.30
2019-04-06T00:40:40.862Z,23.90
2019-04-06T00:41:40.801Z,25.50
2019-04-06T00:42:40.794Z,26.80
2019-04-06T00:43:40.776Z,23.00
2019-04-06T00:44:40.772Z,25.10
2019-04-06T00:45:40.793Z,25.70
2019-04-06T00:46:40.733Z,27.10
2019-04-06T00:47:40.743Z,24.30
2019-04-06T00:48:40.736Z,27.20
2019-04-06T00:49:40.719Z,24.30
2019-04-06T00:50:40.713Z,25.20
2019-04-06T00:51:40.691Z,24.00
2019-04-06T00:52:40.684Z,24.40
2019-04-06T00:53:40.667Z,28.60
2019-04-06T00:54:40.718Z,23.80
2019-04-06T00:55:40.659Z,28.40
2019-04-06T00:56:40.626Z,23.30
2019-04-06T00:57:40.626Z,26.10
2019-04-06T00:58:40.614Z,21.50
2019-04-06T00:59:40.661Z,24.10
2019-04-06T01:00:40.599Z,25.40
2019-04-06T01:01:40.592Z,25.10
2019-04-06T01:02:40.585Z,23.30
2019-04-06T01:03:40.557Z,22.90
2019-04-06T01:04:40.540Z,22.60
2019-04-06T01:05:40.528Z,26.40
2019-04-06T01:06:40.541Z,26.10
2019-04-06T01:07:40.537Z,25.80
2019-04-06T01:08:40.512Z,23.90
2019-04-06T01:09:40.488Z,25.30
2019-04-06T01:10:40.522Z,27.30
2019-04-06T01:11:40.467Z,27.60
2019-04-06T01:12:40.463Z,27.20
2019-04-06T01:13:40.461Z,25.00
2019-04-06T01:14:40.463Z,25.90
2019-04-06T01:15:40.466Z,29.00
2019-04-06T01:16:40.410Z,25.30
2019-04-06T01:17:40.402Z,24.60
2019-04-06T01:18:40.418Z,29.40
2019-04-06T01:19:40.404Z,25.80
2019-04-06T01:20:40.377Z,26.70
2019-04-06T01:21:40.372Z,27.80
2019-04-06T01:22:40.491Z,27.10
2019-04-06T01:23:40.365Z,24.40
2019-04-06T01:24:40.380Z,25.70
2019-04-06T01:25:40.328Z,26.00
2019-04-06T01:26:40.310Z,24.30
2019-04-06T01:27:40.308Z,26.10
2019-04-06T01:28:40.312Z,25.00
2019-04-06T01:29:40.270Z,25.30
2019-04-06T01:30:40.275Z,29.30
2019-04-06T01:31:40.254Z,27.90
2019-04-06T01:32:40.331Z,26.60
2019-04-06T01:33:40.268Z,25.50
2019-04-06T01:34:40.224Z,27.80
2019-04-06T01:35:40.215Z,24.70
2019-04-06T01:36:40.205Z,26.20
2019-04-06T01:37:40.198Z,23.90
2019-04-06T01:38:40.179Z,27.10
2019-04-06T01:39:40.170Z,26.20
2019-04-06T01:40:40.179Z,28.80
2019-04-06T01:41:40.145Z,25.90
2019-04-06T01:42:40.227Z,26.50
2019-04-06T01:43:40.118Z,26.70
2019-04-06T01:44:40.167Z,26.20
2019-04-06T01:45:40.105Z,30.60
2019-04-06T01:46:40.097Z,28.30
2019-04-06T01:47:40.155Z,27.90
2019-04-06T01:48:40.087Z,27.50
2019-04-06T01:49:40.067Z,24.80
2019-04-06T01:50:40.069Z,26.30
2019-04-06T01:51:40.050Z,23.60
2019-04-06T01:52:40.050Z,25.40
2019-04-06T01:53:40.030Z,28.60
2019-04-06T01:54:40.032Z,25.30
2019-04-06T01:55:39.998Z,24.30
2019-04-06T01:56:40.026Z,25.70
2019-04-06T01:57:39.983Z,23.70
2019-04-06T01:58:39.966Z,25.00
2019-04-06T01:59:39.970Z,24.70
2019-04-06T02:00:39.953Z,25.50
2019-04-06T02:01:39.939Z,24.60
2019-04-06T02:02:39.931Z,28.20
2019-04-06T02:03:39.911Z,28.60
2019-04-06T02:04:39.904Z,24.10
2019-04-06T02:05:39.938Z,26.70
2019-04-06T02:06:39.891Z,24.40
2019-04-06T02:07:39.882Z,24.00
2019-04-06T02:08:39.858Z,26.60
2019-04-06T02:09:39.852Z,22.70
2019-04-06T02:10:39.837Z,25.20
2019-04-06T02:11:39.836Z,28.30
2019-04-06T02:12:39.827Z,26.80
2019-04-06T02:13:39.900Z,25.20
2019-04-06T02:14:39.788Z,24.80
2019-04-06T02:15:39.767Z,24.00
2019-04-06T02:16:39.782Z,24.80
2019-04-06T02:17:39.771Z,27.50
2019-04-06T02:18:39.752Z,27.00
2019-04-06T02:19:39.753Z,29.00
2019-04-06T02:20:39.713Z,27.20
2019-04-06T02:21:39.716Z,27.70
2019-04-06T02:22:39.722Z,23.30
2019-04-06T02:23:39.680Z,26.40
2019-04-06T02:24:39.676Z,25.10
2019-04-06T02:25:39.674Z,26.00
2019-04-06T02:26:39.665Z,26.00
2019-04-06T02:27:39.637Z,24.60
2019-04-06T02:28:39.664Z,27.10
2019-04-06T02:29:39.629Z,26.00
2019-04-06T02:30:39.613Z,22.70
2019-04-06T02:31:39.770Z,24.30
2019-04-06T02:32:39.696Z,24.30
2019-04-06T02:33:39.577Z,23.90
2019-04-06T02:34:39.593Z,24.10
2019-04-06T02:35:39.599Z,26.90
2019-04-06T02:36:39.739Z,24.90
2019-04-06T02:37:39.538Z,24.00
2019-04-06T02:38:39.573Z,27.80
2019-04-06T02:39:39.529Z,26.40
2019-04-06T02:40:39.516Z,21.40
2019-04-06T02:41:39.501Z,22.70
2019-04-06T02:42:39.513Z,27.50
2019-04-06T02:43:39.510Z,25.20
2019-04-06T02:44:39.469Z,23.00
2019-04-06T02:45:39.491Z,25.20
2019-04-06T02:46:39.681Z,24.30
2019-04-06T02:47:39.446Z,27.30
2019-04-06T02:48:39.475Z,23.30
2019-04-06T02:49:39.419Z,21.70
2019-04-06T02:50:39.398Z,21.50
2019-04-06T02:51:39.470Z,26.40
2019-04-06T02:52:39.398Z,23.70
2019-04-06T02:53:39.363Z,22.80
2019-04-06T02:54:39.351Z,28.90
2019-04-06T02:55:39.469Z,24.00
2019-04-06T02:56:46.644Z,27.20
2019-04-06T02:57:40.343Z,25.70
2019-04-06T02:58:39.363Z,24.80
2019-04-06T02:59:39.295Z,26.20
2019-04-06T03:00:39.298Z,27.00
2019-04-06T03:01:39.277Z,26.80
2019-04-06T03:02:39.284Z,26.50
2019-04-06T03:03:39.389Z,26.40
2019-04-06T03:04:39.239Z,28.80
2019-04-06T03:05:39.264Z,29.80
2019-04-06T03:06:39.233Z,27.60
2019-04-06T03:07:39.213Z,27.30
2019-04-06T03:08:39.253Z,25.70
2019-04-06T03:09:39.192Z,24.90
2019-04-06T03:10:39.192Z,23.70
2019-04-06T03:11:39.180Z,26.30
2019-04-06T03:12:39.185Z,24.80
2019-04-06T03:13:39.161Z,28.00
2019-04-06T03:14:39.152Z,25.50
2019-04-06T03:15:39.159Z,28.20
2019-04-06T03:16:39.129Z,30.40
2019-04-06T03:17:39.132Z,22.70
2019-04-06T03:18:39.141Z,24.60
2019-04-06T03:19:39.083Z,26.30
2019-04-06T03:20:39.093Z,27.20
2019-04-06T03:21:39.072Z,28.30
2019-04-06T03:22:39.084Z,28.00
2019-04-06T03:23:50.192Z,26.30
2019-04-06T03:24:40.269Z,29.20
2019-04-06T03:25:39.028Z,30.50
2019-04-06T03:26:39.023Z,26.70
2019-04-06T03:27:39.020Z,28.50
2019-04-06T03:28:39.000Z,33.00
2019-04-06T03:29:38.989Z,27.60
2019-04-06T03:30:38.984Z,27.60
2019-04-06T03:31:39.042Z,26.60
2019-04-06T03:32:39.029Z,30.90
2019-04-06T03:33:38.977Z,30.90
2019-04-06T03:34:39.003Z,30.20
2019-04-06T03:35:45.462Z,31.00
2019-04-06T03:36:39.902Z,31.60
2019-04-06T03:37:38.904Z,28.60
2019-04-06T03:38:38.938Z,30.50
2019-04-06T03:39:39.051Z,30.70
2019-04-06T03:40:38.885Z,29.40
2019-04-06T03:41:38.889Z,29.00
2019-04-06T03:42:38.865Z,28.20
2019-04-06T03:43:38.849Z,26.90
2019-04-06T03:44:38.817Z,30.10
2019-04-06T03:45:38.810Z,28.80
2019-04-06T03:46:38.869Z,28.90
2019-04-06T03:47:38.803Z,29.00
2019-04-06T03:48:38.776Z,29.40
2019-04-06T03:49:38.762Z,30.30
2019-04-06T03:50:38.828Z,31.70
2019-04-06T03:51:38.737Z,35.80
2019-04-06T03:52:38.738Z,29.30
2019-04-06T03:53:38.838Z,32.10
2019-04-06T03:54:38.713Z,31.20
2019-04-06T03:55:38.697Z,30.70
2019-04-06T03:56:38.676Z,30.40
2019-04-06T03:57:38.680Z,33.20
2019-04-06T03:58:38.663Z,30.50
2019-04-06T03:59:38.690Z,32.30
2019-04-06T04:00:38.631Z,34.80
2019-04-06T04:01:38.708Z,32.40
2019-04-06T04:02:38.632Z,33.00
2019-04-06T04:03:38.626Z,28.10
2019-04-06T04:04:38.611Z,33.90
2019-04-06T04:05:38.680Z,32.70
2019-04-06T04:06:38.574Z,33.90
2019-04-06T04:07:38.649Z,38.20
2019-04-06T04:08:38.560Z,36.70
2019-04-06T04:09:38.557Z,35.50
2019-04-06T04:10:38.539Z,40.40
2019-04-06T04:11:38.523Z,40.30
2019-04-06T04:12:38.523Z,36.70
2019-04-06T04:13:38.786Z,37.40
2019-04-06T04:14:38.540Z,31.20
2019-04-06T04:15:38.472Z,36.00
2019-04-06T04:16:38.466Z,37.30
2019-04-06T04:17:38.491Z,33.60
2019-04-06T04:18:38.446Z,38.10
2019-04-06T04:19:38.430Z,47.10
2019-04-06T04:20:38.424Z,45.10
2019-04-06T04:21:38.423Z,43.00
2019-04-06T04:22:38.456Z,42.20
2019-04-06T04:23:38.645Z,42.00
2019-04-06T04:24:38.372Z,41.40
2019-04-06T04:25:38.381Z,42.50
2019-04-06T04:26:38.563Z,45.00
2019-04-06T04:27:38.458Z,42.30
2019-04-06T04:28:38.347Z,40.20
2019-04-06T04:29:38.325Z,38.80
2019-04-06T04:30:38.309Z,37.40
2019-04-06T04:31:38.356Z,38.90
2019-04-06T04:32:38.333Z,40.20
2019-04-06T04:33:38.278Z,43.10
2019-04-06T04:34:38.270Z,42.10
2019-04-06T04:35:38.311Z,37.10
2019-04-06T04:36:38.317Z,44.40
2019-04-06T04:37:38.513Z,45.40
2019-04-06T04:38:38.259Z,46.80
2019-04-06T04:39:38.210Z,51.60
2019-04-06T04:40:38.210Z,49.70
2019-04-06T04:41:39.870Z,45.30
2019-04-06T04:42:38.185Z,49.60
2019-04-06T04:43:38.173Z,58.00
2019-04-06T04:44:38.189Z,57.40
2019-04-06T04:45:38.147Z,48.00
2019-04-06T04:46:38.147Z,50.70
2019-04-06T04:47:38.199Z,53.10
2019-04-06T04:48:38.138Z,49.10
2019-04-06T04:49:38.123Z,45.40
2019-04-06T04:50:38.112Z,42.00
2019-04-06T04:51:38.095Z,45.00
2019-04-06T04:52:38.076Z,44.60
2019-04-06T04:53:38.067Z,38.00
2019-04-06T04:54:38.087Z,38.20
2019-04-06T04:55:38.047Z,44.60
2019-04-06T04:56:38.039Z,40.60
2019-04-06T04:57:40.789Z,39.70
2019-04-06T04:58:38.015Z,52.20
2019-04-06T04:59:38.020Z,43.20
2019-04-06T05:00:37.993Z,38.50
2019-04-06T05:01:38.362Z,40.10
2019-04-06T05:02:37.971Z,42.50
2019-04-06T05:03:37.962Z,44.40
2019-04-06T05:04:37.966Z,43.60
2019-04-06T05:05:37.929Z,46.70
2019-04-06T05:06:37.926Z,41.50
2019-04-06T05:07:37.916Z,39.40
2019-04-06T05:08:37.910Z,46.50
2019-04-06T05:09:37.904Z,43.50
2019-04-06T05:10:37.882Z,41.50
2019-04-06T05:11:37.864Z,45.90
2019-04-06T05:12:37.869Z,45.20
2019-04-06T05:13:37.870Z,44.60
2019-04-06T05:14:37.850Z,45.30
2019-04-06T05:15:37.839Z,44.70
2019-04-06T05:16:37.880Z,43.40
2019-04-06T05:17:37.805Z,42.50
2019-04-06T05:18:37.801Z,42.10
2019-04-06T05:19:37.793Z,38.30
2019-04-06T05:20:37.823Z,40.30
2019-04-06T05:21:37.762Z,40.60
2019-04-06T05:22:37.766Z,40.70
2019-04-06T05:23:37.737Z,38.90
2019-04-06T05:24:37.742Z,36.80
2019-04-06T05:25:37.729Z,39.60
2019-04-06T05:26:38.397Z,34.70
2019-04-06T05:27:37.709Z,34.20
2019-04-06T05:28:37.688Z,34.50
2019-04-06T05:29:37.773Z,35.90
2019-04-06T05:30:37.708Z,36.60
2019-04-06T05:31:37.672Z,37.90
2019-04-06T05:32:37.660Z,35.70
2019-04-06T05:33:37.646Z,35.50
2019-04-06T05:34:37.650Z,33.40
2019-04-06T05:35:37.623Z,37.70
2019-04-06T05:36:37.616Z,31.90
2019-04-06T05:37:37.608Z,35.50
2019-04-06T05:38:37.585Z,33.70
2019-04-06T05:39:37.723Z,33.40
2019-04-06T05:40:37.661Z,34.30
2019-04-06T05:41:37.553Z,35.90
2019-04-06T05:42:37.756Z,32.10
2019-04-06T05:43:37.528Z,32.60
2019-04-06T05:44:37.686Z,30.50
2019-04-06T05:45:37.509Z,34.50
2019-04-06T05:46:37.663Z,33.70
2019-04-06T05:47:37.504Z,31.50
2019-04-06T05:48:37.664Z,32.90
2019-04-06T05:49:37.462Z,34.40
2019-04-06T05:50:37.457Z,31.60
2019-04-06T05:51:37.455Z,31.90
2019-04-06T05:52:37.460Z,33.50
2019-04-06T05:53:37.627Z,33.80
2019-04-06T05:54:37.751Z,31.40
2019-04-06T05:55:37.424Z,34.00
2019-04-06T05:56:37.408Z,32.90
2019-04-06T05:57:37.867Z,32.40
2019-04-06T05:58:39.995Z,31.40
2019-04-06T05:59:39.881Z,32.30
2019-04-06T06:00:39.962Z,30.00
2019-04-06T06:01:40.340Z,31.40
2019-04-06T06:02:40.325Z,30.40
2019-04-06T06:03:40.107Z,32.20
2019-04-06T06:04:40.185Z,32.50
2019-04-06T06:05:40.267Z,30.80
2019-04-06T06:06:37.285Z,32.70
2019-04-06T06:07:37.298Z,30.60
2019-04-06T06:08:37.265Z,29.80
2019-04-06T06:09:37.300Z,30.20
2019-04-06T06:10:38.380Z,32.20
2019-04-06T06:11:37.244Z,29.60
2019-04-06T06:12:37.215Z,29.90
2019-04-06T06:13:39.308Z,30.90
2019-04-06T06:14:37.306Z,32.10
2019-04-06T06:15:37.204Z,31.90
2019-04-06T06:16:37.214Z,30.60
2019-04-06T06:17:37.161Z,28.70
2019-04-06T06:18:37.152Z,30.50
2019-04-06T06:19:37.420Z,33.10
2019-04-06T06:20:37.133Z,32.20
2019-04-06T06:21:37.128Z,30.20
2019-04-06T06:22:37.142Z,31.70
2019-04-06T06:23:37.103Z,29.70
2019-04-06T06:24:37.107Z,31.10
2019-04-06T06:25:37.269Z,30.10
2019-04-06T06:26:37.069Z,29.00
2019-04-06T06:27:37.257Z,32.30
2019-04-06T06:28:37.050Z,33.00
2019-04-06T06:29:37.036Z,33.10
2019-04-06T06:30:37.058Z,32.40
2019-04-06T06:31:37.012Z,30.90
2019-04-06T06:32:37.029Z,31.90
2019-04-06T06:33:36.994Z,31.50
2019-04-06T06:34:37.181Z,32.60
2019-04-06T06:35:36.965Z,32.50
2019-04-06T06:36:36.981Z,31.80
2019-04-06T06:37:37.175Z,33.30
2019-04-06T06:38:38.998Z,31.00
2019-04-06T06:39:37.120Z,29.80
2019-04-06T06:40:36.934Z,29.70
2019-04-06T06:41:36.903Z,30.10
2019-04-06T06:42:37.100Z,29.90
2019-04-06T06:43:36.893Z,30.30
2019-04-06T06:44:36.884Z,32.60
2019-04-06T06:45:36.935Z,31.40
2019-04-06T06:46:36.863Z,32.00
2019-04-06T06:47:36.840Z,30.90
2019-04-06T06:48:36.834Z,28.30
2019-04-06T06:49:36.818Z,31.70
2019-04-06T06:50:36.823Z,30.70
2019-04-06T06:51:36.811Z,29.20
2019-04-06T06:52:36.785Z,28.70
2019-04-06T06:53:36.784Z,30.60
2019-04-06T06:54:36.768Z,29.40
2019-04-06T06:55:36.779Z,31.10
2019-04-06T06:56:36.758Z,28.40
2019-04-06T06:57:36.735Z,31.20
2019-04-06T06:58:36.770Z,29.80
2019-04-06T06:59:36.730Z,28.60
2019-04-06T07:00:36.729Z,28.80
2019-04-06T07:01:36.696Z,28.50
2019-04-06T07:02:36.677Z,29.40
2019-04-06T07:03:36.677Z,29.70
2019-04-06T07:04:36.738Z,31.70
2019-04-06T07:05:36.641Z,29.50
2019-04-06T07:06:36.659Z,28.80
2019-04-06T07:07:36.632Z,25.60
2019-04-06T07:08:36.616Z,26.90
2019-04-06T07:09:36.603Z,26.40
2019-04-06T07:10:36.588Z,28.70
2019-04-06T07:11:36.599Z,27.40
2019-04-06T07:12:36.577Z,30.90
2019-04-06T07:13:36.753Z,29.10
2019-04-06T07:14:36.559Z,29.20
2019-04-06T07:15:36.555Z,27.90
2019-04-06T07:16:36.529Z,27.50
2019-04-06T07:17:36.751Z,28.90
2019-04-06T07:18:36.530Z,28.10
2019-04-06T07:19:36.513Z,29.60
2019-04-06T07:20:36.486Z,28.10
2019-04-06T07:21:36.472Z,27.10
2019-04-06T07:22:36.720Z,27.50
2019-04-06T07:23:36.476Z,30.40
2019-04-06T07:24:36.446Z,28.00
2019-04-06T07:25:36.549Z,27.10
2019-04-06T07:26:36.415Z,25.20
2019-04-06T07:27:36.407Z,29.40
2019-04-06T07:28:38.880Z,27.10
2019-04-06T07:29:36.402Z,26.70
2019-04-06T07:30:36.374Z,28.20
2019-04-06T07:31:36.368Z,29.30
2019-04-06T07:32:36.371Z,28.30
2019-04-06T07:33:36.353Z,27.20
2019-04-06T07:34:36.338Z,28.80
2019-04-06T07:35:36.325Z,26.60
2019-04-06T07:36:36.316Z,26.80
2019-04-06T07:37:36.575Z,28.70
2019-04-06T07:38:37.933Z,25.70
2019-04-06T07:39:36.273Z,27.30
2019-04-06T07:40:36.325Z,29.30
2019-04-06T07:41:36.443Z,29.50
2019-04-06T07:42:36.279Z,28.70
2019-04-06T07:43:36.292Z,27.80
2019-04-06T07:44:36.290Z,25.70
2019-04-06T07:45:36.340Z,27.30
2019-04-06T07:46:36.198Z,27.20
2019-04-06T07:47:36.217Z,27.00
2019-04-06T07:48:36.445Z,26.10
2019-04-06T07:49:36.191Z,26.50
2019-04-06T07:50:36.232Z,24.40
2019-04-06T07:51:36.139Z,26.10
2019-04-06T07:52:36.352Z,27.20
2019-04-06T07:53:36.123Z,28.50
2019-04-06T07:54:36.156Z,26.30
2019-04-06T07:55:36.298Z,25.80
2019-04-06T07:56:36.088Z,26.20
2019-04-06T07:57:36.077Z,27.70
2019-04-06T07:58:47.148Z,25.50
2019-04-06T07:59:37.056Z,26.20
2019-04-06T08:00:36.050Z,25.90
2019-04-06T08:01:36.087Z,26.40
2019-04-06T08:02:36.025Z,24.30
2019-04-06T08:03:36.053Z,24.90
2019-04-06T08:04:36.112Z,25.80
2019-04-06T08:05:35.993Z,25.00
2019-04-06T08:06:36.005Z,25.50
2019-04-06T08:07:36.040Z,25.90
2019-04-06T08:08:35.960Z,26.00
2019-04-06T08:09:35.973Z,24.00
2019-04-06T08:10:35.970Z,24.40
2019-04-06T08:11:35.967Z,23.50
2019-04-06T08:12:35.936Z,26.70
2019-04-06T08:13:35.999Z,24.10
2019-04-06T08:14:35.908Z,24.40
2019-04-06T08:15:35.936Z,26.50
2019-04-06T08:16:35.879Z,25.80
2019-04-06T08:17:35.894Z,23.50
2019-04-06T08:18:35.950Z,26.60
2019-04-06T08:19:35.867Z,25.30
2019-04-06T08:20:35.836Z,25.20
2019-04-06T08:21:35.828Z,22.00
2019-04-06T08:22:35.909Z,25.50
2019-04-06T08:23:35.802Z,24.00
2019-04-06T08:24:35.810Z,24.50
2019-04-06T08:25:35.821Z,25.20
2019-04-06T08:26:35.928Z,24.30
2019-04-06T08:27:35.835Z,25.10
2019-04-06T08:28:35.871Z,25.30
2019-04-06T08:29:35.808Z,25.50
2019-04-06T08:30:44.686Z,25.60
2019-04-06T08:31:36.721Z,24.80
2019-04-06T08:32:35.710Z,26.00
2019-04-06T08:33:35.702Z,26.20
2019-04-06T08:34:35.855Z,23.70
2019-04-06T08:35:35.805Z,23.70
2019-04-06T08:36:35.737Z,24.20
2019-04-06T08:37:35.659Z,25.00
2019-04-06T08:38:35.820Z,24.00
2019-04-06T08:39:35.650Z,21.70
2019-04-06T08:40:35.649Z,22.90
2019-04-06T08:41:35.609Z,25.40
2019-04-06T08:42:35.605Z,23.50
2019-04-06T08:43:35.596Z,23.70
2019-04-06T08:44:35.890Z,22.30
2019-04-06T08:45:35.589Z,24.30
2019-04-06T08:46:35.580Z,22.30
2019-04-06T08:47:35.586Z,22.70
2019-04-06T08:48:35.537Z,23.00
2019-04-06T08:49:35.558Z,22.30
2019-04-06T08:50:35.521Z,22.40
2019-04-06T08:51:35.555Z,23.50
2019-04-06T08:52:35.561Z,22.80
2019-04-06T08:53:35.484Z,22.70
2019-04-06T08:54:35.473Z,23.40
2019-04-06T08:55:35.601Z,22.30
2019-04-06T08:56:35.457Z,24.70
2019-04-06T08:57:35.468Z,23.20
2019-04-06T08:58:35.639Z,21.50
2019-04-06T08:59:35.445Z,21.90
2019-04-06T09:00:35.662Z,21.60
2019-04-06T09:01:35.763Z,22.60
2019-04-06T09:02:35.414Z,23.30
2019-04-06T09:03:35.652Z,25.60
2019-04-06T09:04:35.376Z,23.70
2019-04-06T09:05:35.373Z,24.50
2019-04-06T09:06:35.354Z,21.10
2019-04-06T09:07:35.353Z,22.70
2019-04-06T09:08:35.635Z,21.80
2019-04-06T09:09:35.323Z,21.10
2019-04-06T09:10:35.312Z,22.40
2019-04-06T09:11:35.307Z,22.80
2019-04-06T09:12:35.314Z,20.90
2019-04-06T09:13:35.276Z,22.60
2019-04-06T09:14:35.274Z,21.20
2019-04-06T09:15:35.300Z,21.70
2019-04-06T09:16:35.247Z,23.20
2019-04-06T09:17:35.256Z,23.50
2019-04-06T09:18:35.248Z,22.20
2019-04-06T09:19:35.519Z,20.80
2019-04-06T09:20:35.239Z,22.20
2019-04-06T09:21:35.294Z,20.80
2019-04-06T09:22:35.222Z,20.20
2019-04-06T09:23:35.268Z,22.70
2019-04-06T09:24:35.182Z,22.80
2019-04-06T09:25:35.174Z,18.10
2019-04-06T09:26:35.146Z,18.40
2019-04-06T09:27:35.179Z,21.90
2019-04-06T09:28:35.243Z,21.00
2019-04-06T09:29:35.188Z,19.60
2019-04-06T09:30:35.123Z,18.20
2019-04-06T09:31:35.107Z,18.00
2019-04-06T09:32:35.180Z,20.40
2019-04-06T09:33:35.075Z,19.80
2019-04-06T09:34:35.232Z,18.30
2019-04-06T09:35:35.095Z,19.50
2019-04-06T09:36:35.143Z,20.40
2019-04-06T09:37:35.040Z,18.80
2019-04-06T09:38:35.065Z,18.60
2019-04-06T09:39:35.024Z,20.10
2019-04-06T09:40:35.009Z,18.40
2019-04-06T09:41:35.026Z,19.50
2019-04-06T09:42:35.255Z,18.30
2019-04-06T09:43:34.975Z,20.30
2019-04-06T09:44:35.301Z,18.50
2019-04-06T09:45:34.999Z,20.00
2019-04-06T09:46:34.937Z,18.40
2019-04-06T09:47:34.950Z,20.00
2019-04-06T09:48:34.997Z,20.00
2019-04-06T09:49:34.913Z,19.30
2019-04-06T09:50:34.922Z,18.30
2019-04-06T09:51:34.913Z,19.10
2019-04-06T09:52:34.882Z,17.60
2019-04-06T09:53:34.866Z,19.20
2019-04-06T09:54:34.864Z,18.90
2019-04-06T09:55:35.124Z,18.30
2019-04-06T09:56:34.966Z,21.60
2019-04-06T09:57:34.841Z,18.80
2019-04-06T09:58:34.815Z,18.00
2019-04-06T09:59:37.061Z,17.90
2019-04-06T10:00:34.809Z,17.20
2019-04-06T10:01:38.929Z,17.90
2019-04-06T10:02:34.816Z,19.50
2019-04-06T10:03:34.783Z,19.30
2019-04-06T10:04:34.758Z,18.30
2019-04-06T10:05:34.745Z,18.10
2019-04-06T10:06:34.739Z,19.00
2019-04-06T10:07:34.741Z,19.10
2019-04-06T10:08:34.758Z,19.80
2019-04-06T10:09:34.804Z,19.30
2019-04-06T10:10:34.875Z,20.90
2019-04-06T10:11:34.826Z,17.50
2019-04-06T10:12:34.691Z,19.60
2019-04-06T10:13:34.713Z,16.60
2019-04-06T10:14:34.661Z,17.70
2019-04-06T10:15:35.002Z,18.80
2019-04-06T10:16:34.888Z,18.30
2019-04-06T10:17:34.650Z,19.00
2019-04-06T10:18:34.627Z,17.20
2019-04-06T10:19:34.604Z,16.70
2019-04-06T10:20:34.596Z,18.20
2019-04-06T10:21:34.598Z,19.30
2019-04-06T10:22:34.896Z,19.40
2019-04-06T10:23:34.574Z,18.30
2019-04-06T10:24:34.560Z,17.70
2019-04-06T10:25:34.596Z,18.00
2019-04-06T10:26:34.549Z,18.30
2019-04-06T10:27:34.545Z,17.40
2019-04-06T10:28:34.655Z,17.10
2019-04-06T10:29:46.878Z,17.30
2019-04-06T10:30:35.582Z,17.20
2019-04-06T10:31:34.559Z,18.80
2019-04-06T10:32:34.477Z,19.20
2019-04-06T10:33:34.467Z,19.50
2019-04-06T10:34:34.652Z,17.20
2019-04-06T10:35:34.467Z,19.10
2019-04-06T10:36:34.636Z,19.00
2019-04-06T10:37:34.421Z,18.30
2019-04-06T10:38:34.422Z,17.30
2019-04-06T10:39:34.405Z,20.40
2019-04-06T10:40:34.402Z,19.70
2019-04-06T10:41:34.402Z,16.60
2019-04-06T10:42:34.389Z,17.40
2019-04-06T10:43:34.494Z,18.00
2019-04-06T10:44:34.360Z,17.70
2019-04-06T10:45:34.528Z,19.00
2019-04-06T10:46:34.344Z,19.30
2019-04-06T10:47:34.586Z,19.40
2019-04-06T10:48:34.325Z,17.30
2019-04-06T10:49:34.396Z,19.40
2019-04-06T10:50:34.286Z,20.60
2019-04-06T10:51:34.279Z,18.80
2019-04-06T10:52:34.276Z,19.70
2019-04-06T10:53:34.266Z,19.20
2019-04-06T10:54:34.543Z,19.30
2019-04-06T10:55:34.264Z,17.10
2019-04-06T10:56:34.238Z,19.20
2019-04-06T10:57:34.572Z,20.20
2019-04-06T10:58:34.270Z,18.20
2019-04-06T10:59:34.199Z,19.40
2019-04-06T11:00:34.254Z,21.40
2019-04-06T11:01:34.180Z,19.30
2019-04-06T11:02:34.208Z,19.40
2019-04-06T11:03:34.406Z,19.80
2019-04-06T11:04:34.155Z,18.60
2019-04-06T11:05:34.201Z,17.60
2019-04-06T11:06:34.134Z,21.40
2019-04-06T11:07:34.111Z,18.90
2019-04-06T11:08:34.111Z,19.30
2019-04-06T11:09:34.174Z,18.80
2019-04-06T11:10:34.076Z,19.80
2019-04-06T11:11:34.064Z,18.20
2019-04-06T11:12:34.415Z,18.10
2019-04-06T11:13:34.085Z,18.80
2019-04-06T11:14:34.030Z,19.40
2019-04-06T11:15:34.077Z,18.10
2019-04-06T11:16:34.013Z,18.70
2019-04-06T11:17:34.007Z,18.90
2019-04-06T11:18:34.010Z,20.60
2019-04-06T11:19:33.978Z,20.70
2019-04-06T11:20:34.246Z,18.80
2019-04-06T11:21:33.987Z,19.80
2019-04-06T11:22:33.943Z,17.90
2019-04-06T11:23:34.294Z,19.70
2019-04-06T11:24:33.952Z,21.60
2019-04-06T11:25:33.993Z,19.80
2019-04-06T11:26:34.235Z,18.60
2019-04-06T11:27:33.944Z,19.90
2019-04-06T11:28:33.881Z,18.20
2019-04-06T11:29:33.866Z,21.80
2019-04-06T11:30:33.918Z,19.70
2019-04-06T11:31:33.852Z,19.20
2019-04-06T11:32:33.838Z,20.50
2019-04-06T11:33:33.860Z,19.10
2019-04-06T11:34:33.810Z,20.80
2019-04-06T11:35:33.822Z,18.30
2019-04-06T11:36:33.797Z,19.40
2019-04-06T11:37:33.810Z,21.20
2019-04-06T11:38:33.779Z,20.50
2019-04-06T11:39:33.811Z,20.30
2019-04-06T11:40:33.790Z,20.60
2019-04-06T11:41:33.756Z,20.50
2019-04-06T11:42:33.926Z,19.70
2019-04-06T11:43:33.724Z,19.20
2019-04-06T11:44:33.709Z,19.80
2019-04-06T11:45:33.741Z,19.10
2019-04-06T11:46:33.699Z,19.10
2019-04-06T11:47:33.675Z,18.90
2019-04-06T11:48:33.756Z,19.30
2019-04-06T11:49:33.802Z,18.40
2019-04-06T11:50:33.683Z,17.70
2019-04-06T11:51:33.634Z,20.40
2019-04-06T11:52:33.717Z,20.30
2019-04-06T11:53:33.608Z,18.80
2019-04-06T11:54:33.599Z,19.10
2019-04-06T11:55:34.003Z,17.60
2019-04-06T11:56:33.856Z,19.30
2019-04-06T11:57:33.589Z,18.40
2019-04-06T11:58:33.649Z,20.00
2019-04-06T11:59:33.760Z,20.50
2019-04-06T12:00:33.783Z,19.50
2019-04-06T12:01:33.668Z,18.40
2019-04-06T12:02:33.522Z,17.30
2019-04-06T12:03:33.526Z,16.50
2019-04-06T12:04:33.501Z,19.50
2019-04-06T12:05:33.561Z,19.30
2019-04-06T12:06:33.633Z,21.30
2019-04-06T12:07:33.487Z,19.70
2019-04-06T12:08:33.629Z,19.00
2019-04-06T12:09:33.691Z,18.10
2019-04-06T12:10:33.437Z,19.40
2019-04-06T12:11:33.484Z,19.40
2019-04-06T12:12:33.750Z,20.40
2019-04-06T12:13:33.422Z,20.60
2019-04-06T12:14:33.417Z,20.20
2019-04-06T12:15:33.680Z,19.50
2019-04-06T12:16:33.377Z,21.20
2019-04-06T12:17:33.439Z,20.00
2019-04-06T12:18:33.345Z,18.80
2019-04-06T12:19:33.334Z,18.10
2019-04-06T12:20:33.347Z,21.50
2019-04-06T12:21:33.319Z,20.10
2019-04-06T12:22:33.331Z,18.90
2019-04-06T12:23:33.799Z,18.70
2019-04-06T12:24:33.699Z,19.90
2019-04-06T12:25:33.292Z,18.80
2019-04-06T12:26:33.349Z,20.30
2019-04-06T12:27:33.273Z,19.60
2019-04-06T12:28:33.352Z,19.20
2019-04-06T12:29:33.267Z,18.90
2019-04-06T12:30:38.588Z,17.40
2019-04-06T12:31:34.231Z,18.90
2019-04-06T12:32:33.471Z,18.90
2019-04-06T12:33:33.246Z,20.30
2019-04-06T12:34:33.176Z,19.00
2019-04-06T12:35:33.167Z,20.10
2019-04-06T12:36:33.271Z,18.80
2019-04-06T12:37:33.145Z,19.10
2019-04-06T12:38:33.370Z,19.70
2019-04-06T12:39:33.159Z,16.70
2019-04-06T12:40:33.346Z,18.70
2019-04-06T12:41:33.108Z,17.00
2019-04-06T12:42:33.113Z,19.20
2019-04-06T12:43:33.107Z,20.20
2019-04-06T12:44:33.254Z,19.80
2019-04-06T12:45:33.064Z,20.90
2019-04-06T12:46:33.062Z,20.00
2019-04-06T12:47:33.188Z,16.50
2019-04-06T12:48:33.059Z,18.20
2019-04-06T12:49:33.153Z,19.60
2019-04-06T12:50:33.008Z,18.60
2019-04-06T12:51:33.039Z,17.60
2019-04-06T12:52:33.415Z,17.90